sensor_id;sensor_type;location;lat;lon;timestamp;pressure;altitude;pressure_sealevel;temperature;humidity
59104;BME280;51449;51.676;5.812;2023-02-22T00:01:49;101474.97;;;8.31;79.46
59104;BME280;51449;51.676;5.812;2023-02-22T00:04:11;101480.97;;;8.33;79.48
59104;BME280;51449;51.676;5.812;2023-02-22T00:06:34;101471.94;;;8.32;79.82
59104;BME280;51449;51.676;5.812;2023-02-22T00:08:56;101475.78;;;8.31;80.04
59104;BME280;51449;51.676;5.812;2023-02-22T00:11:19;101478.84;;;8.30;79.56
59104;BME280;51449;51.676;5.812;2023-02-22T00:13:41;101479.94;;;8.29;79.83
59104;BME280;51449;51.676;5.812;2023-02-22T00:16:05;101479.13;;;8.28;80.00
59104;BME280;51449;51.676;5.812;2023-02-22T00:18:28;101482.38;;;8.30;79.74
59104;BME280;51449;51.676;5.812;2023-02-22T00:20:50;101473.34;;;8.30;79.87
59104;BME280;51449;51.676;5.812;2023-02-22T00:23:17;101470.28;;;8.31;80.16
59104;BME280;51449;51.676;5.812;2023-02-22T00:25:42;101476.28;;;8.33;80.35
59104;BME280;51449;51.676;5.812;2023-02-22T00:28:05;101473.25;;;8.35;80.31
59104;BME280;51449;51.676;5.812;2023-02-22T00:30:29;101474.88;;;8.36;79.82
59104;BME280;51449;51.676;5.812;2023-02-22T00:32:53;101481.47;;;8.35;79.84
59104;BME280;51449;51.676;5.812;2023-02-22T00:35:19;101476.59;;;8.32;80.00
59104;BME280;51449;51.676;5.812;2023-02-22T00:37:46;101482.69;;;8.29;79.96
59104;BME280;51449;51.676;5.812;2023-02-22T00:40:11;101487.16;;;8.25;80.39
59104;BME280;51449;51.676;5.812;2023-02-22T00:42:36;101487.25;;;8.20;80.27
59104;BME280;51449;51.676;5.812;2023-02-22T00:44:58;101478.19;;;8.19;79.92
59104;BME280;51449;51.676;5.812;2023-02-22T00:47:20;101480.44;;;8.17;80.27
59104;BME280;51449;51.676;5.812;2023-02-22T00:49:42;101482.34;;;8.17;80.32
59104;BME280;51449;51.676;5.812;2023-02-22T00:52:04;101481.78;;;8.20;80.13
59104;BME280;51449;51.676;5.812;2023-02-22T00:54:26;101466.41;;;8.19;80.32
59104;BME280;51449;51.676;5.812;2023-02-22T00:56:47;101473.22;;;8.21;79.95
59104;BME280;51449;51.676;5.812;2023-02-22T00:59:11;101469.13;;;8.19;80.03
59104;BME280;51449;51.676;5.812;2023-02-22T01:01:33;101471.38;;;8.17;80.03
59104;BME280;51449;51.676;5.812;2023-02-22T01:03:55;101464.88;;;8.12;80.20
59104;BME280;51449;51.676;5.812;2023-02-22T01:06:16;101464.34;;;8.10;80.06
59104;BME280;51449;51.676;5.812;2023-02-22T01:08:43;101466.59;;;8.08;79.99
59104;BME280;51449;51.676;5.812;2023-02-22T01:11:05;101459.78;;;8.06;80.04
59104;BME280;51449;51.676;5.812;2023-02-22T01:13:27;101455.69;;;8.03;80.16
59104;BME280;51449;51.676;5.812;2023-02-22T01:15:49;101454.38;;;8.01;80.14
59104;BME280;51449;51.676;5.812;2023-02-22T01:18:11;101459.06;;;8.00;79.69
59104;BME280;51449;51.676;5.812;2023-02-22T01:20:33;101452.25;;;7.98;79.74
59104;BME280;51449;51.676;5.812;2023-02-22T01:22:58;101449.78;;;7.96;79.68
59104;BME280;51449;51.676;5.812;2023-02-22T01:25:25;101448.16;;;7.95;80.14
59104;BME280;51449;51.676;5.812;2023-02-22T01:27:49;101444.59;;;7.94;80.33
59104;BME280;51449;51.676;5.812;2023-02-22T01:30:13;101440.41;;;7.97;80.19
59104;BME280;51449;51.676;5.812;2023-02-22T01:32:36;101439.09;;;7.94;79.76
59104;BME280;51449;51.676;5.812;2023-02-22T01:34:59;101437.78;;;7.92;80.07
59104;BME280;51449;51.676;5.812;2023-02-22T01:37:21;101438.28;;;7.94;80.11
59104;BME280;51449;51.676;5.812;2023-02-22T01:39:42;101433.31;;;7.96;79.80
59104;BME280;51449;51.676;5.812;2023-02-22T01:42:06;101431.09;;;7.98;80.14
59104;BME280;51449;51.676;5.812;2023-02-22T01:44:32;101426.69;;;7.97;80.33
59104;BME280;51449;51.676;5.812;2023-02-22T01:46:57;101423.16;;;7.97;80.19
59104;BME280;51449;51.676;5.812;2023-02-22T01:49:24;101423.97;;;7.97;79.99
59104;BME280;51449;51.676;5.812;2023-02-22T01:51:52;101420.41;;;7.97;80.38
59104;BME280;51449;51.676;5.812;2023-02-22T01:54:22;101425.59;;;7.98;80.28
59104;BME280;51449;51.676;5.812;2023-02-22T01:56:53;101413.81;;;7.98;80.17
59104;BME280;51449;51.676;5.812;2023-02-22T01:59:21;101418.19;;;7.99;80.48
59104;BME280;51449;51.676;5.812;2023-02-22T02:01:44;101418.19;;;7.99;80.22
59104;BME280;51449;51.676;5.812;2023-02-22T02:04:11;101416.84;;;7.96;80.40
59104;BME280;51449;51.676;5.812;2023-02-22T02:06:38;101421.53;;;7.96;79.90
59104;BME280;51449;51.676;5.812;2023-02-22T02:09:20;101417.97;;;7.95;80.21
59104;BME280;51449;51.676;5.812;2023-02-22T02:11:52;101405.16;;;7.90;80.00
59104;BME280;51449;51.676;5.812;2023-02-22T02:14:15;101402.19;;;7.87;80.21
59104;BME280;51449;51.676;5.812;2023-02-22T02:16:43;101404.94;;;7.87;80.10
59104;BME280;51449;51.676;5.812;2023-02-22T02:27:31;101394.44;;;7.75;80.07
59104;BME280;51449;51.676;5.812;2023-02-22T02:33:28;101382.75;;;7.69;79.79
59104;BME280;51449;51.676;5.812;2023-02-22T02:36:13;101383.34;;;7.66;79.39
59104;BME280;51449;51.676;5.812;2023-02-22T02:38:54;101379.06;;;7.60;79.89
59104;BME280;51449;51.676;5.812;2023-02-22T02:41:41;101374.78;;;7.54;79.34
59104;BME280;51449;51.676;5.812;2023-02-22T02:44:19;101375.69;;;7.49;79.72
59104;BME280;51449;51.676;5.812;2023-02-22T02:46:50;101371.63;;;7.47;79.64
59104;BME280;51449;51.676;5.812;2023-02-22T02:49:26;101366.41;;;7.45;80.01
59104;BME280;51449;51.676;5.812;2023-02-22T02:51:54;101367.53;;;7.44;80.02
59104;BME280;51449;51.676;5.812;2023-02-22T02:54:19;101365.63;;;7.45;79.44
59104;BME280;51449;51.676;5.812;2023-02-22T02:56:46;101364.28;;;7.42;80.01
59104;BME280;51449;51.676;5.812;2023-02-22T02:59:27;101354.13;;;7.43;80.21
59104;BME280;51449;51.676;5.812;2023-02-22T03:08:16;101357.75;;;7.38;80.31
59104;BME280;51449;51.676;5.812;2023-02-22T03:13:49;101353.66;;;7.22;79.96
59104;BME280;51449;51.676;5.812;2023-02-22T03:16:48;101352.63;;;7.18;79.89
59104;BME280;51449;51.676;5.812;2023-02-22T03:19:47;101343.34;;;7.14;80.25
59104;BME280;51449;51.676;5.812;2023-02-22T03:22:27;101349.97;;;7.13;80.38
59104;BME280;51449;51.676;5.812;2023-02-22T03:25:06;101345.88;;;7.10;80.56
59104;BME280;51449;51.676;5.812;2023-02-22T03:27:42;101349.44;;;7.11;80.83
59104;BME280;51449;51.676;5.812;2023-02-22T03:30:51;101347.50;;;7.11;80.68
59104;BME280;51449;51.676;5.812;2023-02-22T03:33:29;101350.03;;;7.07;80.66
59104;BME280;51449;51.676;5.812;2023-02-22T03:36:01;101351.22;;;7.01;80.85
59104;BME280;51449;51.676;5.812;2023-02-22T03:38:28;101349.34;;;6.97;81.50
59104;BME280;51449;51.676;5.812;2023-02-22T03:40:55;101346.63;;;6.97;81.67
59104;BME280;51449;51.676;5.812;2023-02-22T03:43:24;101342.78;;;6.98;81.51
59104;BME280;51449;51.676;5.812;2023-02-22T03:45:53;101336.78;;;6.96;81.84
59104;BME280;51449;51.676;5.812;2023-02-22T03:48:26;101340.94;;;6.93;82.40
59104;BME280;51449;51.676;5.812;2023-02-22T03:50:56;101333.31;;;6.90;82.20
59104;BME280;51449;51.676;5.812;2023-02-22T03:53:19;101345.38;;;6.89;82.44
59104;BME280;51449;51.676;5.812;2023-02-22T03:55:46;101333.81;;;6.92;82.50
59104;BME280;51449;51.676;5.812;2023-02-22T03:58:13;101336.84;;;6.91;82.40
59104;BME280;51449;51.676;5.812;2023-02-22T04:00:35;101327.22;;;6.93;82.54
59104;BME280;51449;51.676;5.812;2023-02-22T04:02:57;101327.53;;;6.92;82.99
59104;BME280;51449;51.676;5.812;2023-02-22T04:05:21;101322.84;;;6.92;82.70
59104;BME280;51449;51.676;5.812;2023-02-22T04:07:45;101315.75;;;6.91;83.24
59104;BME280;51449;51.676;5.812;2023-02-22T04:10:09;101310.28;;;6.91;83.09
59104;BME280;51449;51.676;5.812;2023-02-22T04:12:34;101315.75;;;6.91;83.15
59104;BME280;51449;51.676;5.812;2023-02-22T04:14:58;101318.22;;;6.93;83.03
59104;BME280;51449;51.676;5.812;2023-02-22T04:17:20;101313.22;;;6.95;83.34
59104;BME280;51449;51.676;5.812;2023-02-22T04:19:42;101312.94;;;6.96;82.65
59104;BME280;51449;51.676;5.812;2023-02-22T04:22:07;101309.91;;;6.98;83.17
59104;BME280;51449;51.676;5.812;2023-02-22T04:24:28;101308.59;;;6.95;82.95
59104;BME280;51449;51.676;5.812;2023-02-22T04:26:52;101305.84;;;6.95;83.59
59104;BME280;51449;51.676;5.812;2023-02-22T04:29:16;101300.84;;;6.97;83.28
59104;BME280;51449;51.676;5.812;2023-02-22T04:31:38;101301.38;;;6.99;83.70
59104;BME280;51449;51.676;5.812;2023-02-22T04:34:01;101294.00;;;7.00;83.91
59104;BME280;51449;51.676;5.812;2023-02-22T04:36:27;101289.53;;;7.04;83.93
59104;BME280;51449;51.676;5.812;2023-02-22T04:38:48;101285.38;;;7.06;83.54
59104;BME280;51449;51.676;5.812;2023-02-22T04:41:10;101275.75;;;7.09;83.39
59104;BME280;51449;51.676;5.812;2023-02-22T04:43:33;101270.59;;;7.07;83.38
59104;BME280;51449;51.676;5.812;2023-02-22T04:46:02;101275.22;;;7.07;83.55
59104;BME280;51449;51.676;5.812;2023-02-22T04:48:25;101269.75;;;7.07;83.44
59104;BME280;51449;51.676;5.812;2023-02-22T04:50:47;101270.59;;;7.07;83.30
59104;BME280;51449;51.676;5.812;2023-02-22T04:53:09;101263.16;;;7.08;83.59
59104;BME280;51449;51.676;5.812;2023-02-22T04:55:32;101260.13;;;7.10;83.33
59104;BME280;51449;51.676;5.812;2023-02-22T04:57:55;101247.34;;;7.05;83.66
59104;BME280;51449;51.676;5.812;2023-02-22T05:00:18;101252.28;;;7.03;83.86
59104;BME280;51449;51.676;5.812;2023-02-22T05:02:42;101252.28;;;7.03;83.87
59104;BME280;51449;51.676;5.812;2023-02-22T05:05:05;101250.38;;;7.03;83.69
59104;BME280;51449;51.676;5.812;2023-02-22T05:07:27;101250.06;;;7.05;83.87
59104;BME280;51449;51.676;5.812;2023-02-22T05:09:49;101251.69;;;7.06;83.54
59104;BME280;51449;51.676;5.812;2023-02-22T05:12:10;101246.22;;;7.06;84.06
59104;BME280;51449;51.676;5.812;2023-02-22T05:14:32;101246.00;;;7.02;83.99
59104;BME280;51449;51.676;5.812;2023-02-22T05:16:56;101237.78;;;7.02;84.22
59104;BME280;51449;51.676;5.812;2023-02-22T05:19:18;101227.94;;;7.01;84.46
59104;BME280;51449;51.676;5.812;2023-02-22T05:21:40;101232.09;;;6.99;84.69
59104;BME280;51449;51.676;5.812;2023-02-22T05:24:01;101231.28;;;6.98;84.42
59104;BME280;51449;51.676;5.812;2023-02-22T05:26:23;101238.06;;;7.01;84.61
59104;BME280;51449;51.676;5.812;2023-02-22T05:28:45;101235.84;;;7.03;84.60
59104;BME280;51449;51.676;5.812;2023-02-22T05:31:07;101238.59;;;7.03;84.44
59104;BME280;51449;51.676;5.812;2023-02-22T05:33:29;101246.81;;;7.03;84.35
59104;BME280;51449;51.676;5.812;2023-02-22T05:35:53;101236.47;;;7.00;84.44
59104;BME280;51449;51.676;5.812;2023-02-22T05:38:16;101245.78;;;6.99;84.97
59104;BME280;51449;51.676;5.812;2023-02-22T05:40:38;101237.28;;;7.00;84.86
59104;BME280;51449;51.676;5.812;2023-02-22T05:43:00;101238.59;;;7.03;84.67
59104;BME280;51449;51.676;5.812;2023-02-22T05:45:25;101233.63;;;7.05;85.13
59104;BME280;51449;51.676;5.812;2023-02-22T05:47:49;101237.19;;;7.05;84.71
59104;BME280;51449;51.676;5.812;2023-02-22T05:50:12;101232.50;;;7.06;84.84
59104;BME280;51449;51.676;5.812;2023-02-22T05:52:35;101233.31;;;7.06;85.16
59104;BME280;51449;51.676;5.812;2023-02-22T05:54:57;101229.16;;;7.09;84.69
59104;BME280;51449;51.676;5.812;2023-02-22T05:57:19;101234.66;;;7.09;84.83
59104;BME280;51449;51.676;5.812;2023-02-22T05:59:40;101220.94;;;7.09;84.86
59104;BME280;51449;51.676;5.812;2023-02-22T06:02:03;101225.84;;;7.12;84.94
59104;BME280;51449;51.676;5.812;2023-02-22T06:04:25;101214.56;;;7.14;84.74
59104;BME280;51449;51.676;5.812;2023-02-22T06:06:46;101218.63;;;7.16;85.19
59104;BME280;51449;51.676;5.812;2023-02-22T06:09:08;101208.78;;;7.15;85.01
59104;BME280;51449;51.676;5.812;2023-02-22T06:11:30;101214.28;;;7.15;84.91
59104;BME280;51449;51.676;5.812;2023-02-22T06:13:52;101201.38;;;7.16;85.08
59104;BME280;51449;51.676;5.812;2023-02-22T06:16:14;101213.16;;;7.16;85.10
59104;BME280;51449;51.676;5.812;2023-02-22T06:18:36;101203.84;;;7.17;84.83
59104;BME280;51449;51.676;5.812;2023-02-22T06:20:58;101196.94;;;7.20;84.85
59104;BME280;51449;51.676;5.812;2023-02-22T06:23:20;101200.19;;;7.22;85.23
59104;BME280;51449;51.676;5.812;2023-02-22T06:25:41;101195.00;;;7.20;84.60
59104;BME280;51449;51.676;5.812;2023-02-22T06:28:03;101193.06;;;7.21;84.90
59104;BME280;51449;51.676;5.812;2023-02-22T06:30:26;101200.47;;;7.20;84.58
59104;BME280;51449;51.676;5.812;2023-02-22T06:32:48;101199.97;;;7.18;85.07
59104;BME280;51449;51.676;5.812;2023-02-22T06:35:10;101187.69;;;7.16;85.04
59104;BME280;51449;51.676;5.812;2023-02-22T06:37:32;101185.56;;;7.13;85.11
59104;BME280;51449;51.676;5.812;2023-02-22T06:39:53;101195.19;;;7.10;85.25
59104;BME280;51449;51.676;5.812;2023-02-22T06:42:16;101189.38;;;7.12;85.29
59104;BME280;51449;51.676;5.812;2023-02-22T06:44:38;101181.50;;;7.10;85.17
59104;BME280;51449;51.676;5.812;2023-02-22T06:47:00;101182.91;;;7.07;85.26
59104;BME280;51449;51.676;5.812;2023-02-22T06:49:22;101177.09;;;7.09;85.32
59104;BME280;51449;51.676;5.812;2023-02-22T06:51:44;101174.38;;;7.09;85.19
59104;BME280;51449;51.676;5.812;2023-02-22T06:54:07;101163.72;;;7.07;85.31
59104;BME280;51449;51.676;5.812;2023-02-22T06:56:28;101161.28;;;7.06;85.70
59104;BME280;51449;51.676;5.812;2023-02-22T06:58:50;101166.25;;;7.04;85.60
59104;BME280;51449;51.676;5.812;2023-02-22T07:01:12;101160.75;;;7.04;85.58
59104;BME280;51449;51.676;5.812;2023-02-22T07:03:34;101171.72;;;7.04;85.63
59104;BME280;51449;51.676;5.812;2023-02-22T07:05:57;101166.25;;;7.04;85.64
59104;BME280;51449;51.676;5.812;2023-02-22T07:08:19;101170.63;;;7.05;85.22
59104;BME280;51449;51.676;5.812;2023-02-22T07:10:41;101171.94;;;7.07;85.51
59104;BME280;51449;51.676;5.812;2023-02-22T07:13:04;101174.88;;;7.11;85.73
59104;BME280;51449;51.676;5.812;2023-02-22T07:15:28;101175.69;;;7.12;85.40
59104;BME280;51449;51.676;5.812;2023-02-22T07:17:51;101171.34;;;7.11;85.70
59104;BME280;51449;51.676;5.812;2023-02-22T07:20:13;101178.75;;;7.10;85.52
59104;BME280;51449;51.676;5.812;2023-02-22T07:22:36;101177.63;;;7.11;85.96
59104;BME280;51449;51.676;5.812;2023-02-22T07:24:59;101177.63;;;7.11;85.94
59104;BME280;51449;51.676;5.812;2023-02-22T07:27:20;101177.34;;;7.13;85.99
59104;BME280;51449;51.676;5.812;2023-02-22T07:29:43;101169.91;;;7.13;86.16
59104;BME280;51449;51.676;5.812;2023-02-22T07:32:04;101173.19;;;7.15;85.85
59104;BME280;51449;51.676;5.812;2023-02-22T07:34:26;101182.72;;;7.18;86.01
59104;BME280;51449;51.676;5.812;2023-02-22T07:36:48;101192.56;;;7.19;86.57
59104;BME280;51449;51.676;5.812;2023-02-22T07:39:09;101194.47;;;7.18;85.74
59104;BME280;51449;51.676;5.812;2023-02-22T07:41:31;101192.25;;;7.20;86.43
59104;BME280;51449;51.676;5.812;2023-02-22T07:43:53;101190.84;;;7.23;86.19
59104;BME280;51449;51.676;5.812;2023-02-22T07:46:14;101199.25;;;7.26;86.23
59104;BME280;51449;51.676;5.812;2023-02-22T07:48:36;101194.28;;;7.28;85.87
59104;BME280;51449;51.676;5.812;2023-02-22T07:50:59;101200.28;;;7.31;86.05
59104;BME280;51449;51.676;5.812;2023-02-22T07:53:26;101190.66;;;7.33;86.13
59104;BME280;51449;51.676;5.812;2023-02-22T07:55:53;101189.03;;;7.32;86.21
59104;BME280;51449;51.676;5.812;2023-02-22T07:58:17;101192.59;;;7.33;85.98
59104;BME280;51449;51.676;5.812;2023-02-22T08:00:42;101194.72;;;7.36;86.25
59104;BME280;51449;51.676;5.812;2023-02-22T08:03:12;101198.47;;;7.40;85.95
59104;BME280;51449;51.676;5.812;2023-02-22T08:05:36;101191.28;;;7.44;86.33
59104;BME280;51449;51.676;5.812;2023-02-22T08:08:00;101179.19;;;7.45;86.31
59104;BME280;51449;51.676;5.812;2023-02-22T08:10:24;101183.75;;;7.49;86.21
59104;BME280;51449;51.676;5.812;2023-02-22T08:12:46;101190.56;;;7.52;86.10
59104;BME280;51449;51.676;5.812;2023-02-22T08:15:16;101192.69;;;7.55;86.22
59104;BME280;51449;51.676;5.812;2023-02-22T08:17:40;101200.00;;;7.60;86.15
59104;BME280;51449;51.676;5.812;2023-02-22T08:20:01;101196.34;;;7.64;85.69
59104;BME280;51449;51.676;5.812;2023-02-22T08:22:23;101195.44;;;7.69;86.28
59104;BME280;51449;51.676;5.812;2023-02-22T08:24:45;101201.34;;;7.76;86.35
59104;BME280;51449;51.676;5.812;2023-02-22T08:27:06;101191.34;;;7.80;86.20
59104;BME280;51449;51.676;5.812;2023-02-22T08:29:28;101195.94;;;7.85;85.64
59104;BME280;51449;51.676;5.812;2023-02-22T08:31:53;101193.91;;;7.90;85.96
59104;BME280;51449;51.676;5.812;2023-02-22T08:34:15;101198.78;;;7.93;85.77
59104;BME280;51449;51.676;5.812;2023-02-22T08:36:41;101195.41;;;7.97;85.71
59104;BME280;51449;51.676;5.812;2023-02-22T08:39:03;101192.88;;;8.00;85.59
59104;BME280;51449;51.676;5.812;2023-02-22T08:41:24;101198.25;;;8.05;85.64
59104;BME280;51449;51.676;5.812;2023-02-22T08:43:47;101196.22;;;8.11;85.68
59104;BME280;51449;51.676;5.812;2023-02-22T08:46:08;101199.16;;;8.14;85.38
59104;BME280;51449;51.676;5.812;2023-02-22T08:48:30;101191.91;;;8.19;85.45
59104;BME280;51449;51.676;5.812;2023-02-22T08:50:52;101195.38;;;8.24;85.12
59104;BME280;51449;51.676;5.812;2023-02-22T08:53:14;101184.59;;;8.28;84.89
59104;BME280;51449;51.676;5.812;2023-02-22T08:55:38;101180.69;;;8.29;84.96
59104;BME280;51449;51.676;5.812;2023-02-22T08:58:01;101171.66;;;8.28;84.59
59104;BME280;51449;51.676;5.812;2023-02-22T09:00:24;101164.75;;;8.31;84.40
59104;BME280;51449;51.676;5.812;2023-02-22T09:02:46;101172.84;;;8.36;84.67
59104;BME280;51449;51.676;5.812;2023-02-22T09:05:08;101167.28;;;8.41;84.24
59104;BME280;51449;51.676;5.812;2023-02-22T09:07:29;101161.69;;;8.46;84.48
59104;BME280;51449;51.676;5.812;2023-02-22T09:09:51;101161.56;;;8.51;84.11
59104;BME280;51449;51.676;5.812;2023-02-22T09:12:13;101166.94;;;8.56;83.70
59104;BME280;51449;51.676;5.812;2023-02-22T09:14:35;101169.53;;;8.62;83.60
59104;BME280;51449;51.676;5.812;2023-02-22T09:16:57;101165.06;;;8.66;83.57
59104;BME280;51449;51.676;5.812;2023-02-22T09:19:18;101176.72;;;8.71;83.33
59104;BME280;51449;51.676;5.812;2023-02-22T09:21:40;101168.34;;;8.76;83.22
59104;BME280;51449;51.676;5.812;2023-02-22T09:24:02;101162.94;;;8.85;83.09
59104;BME280;51449;51.676;5.812;2023-02-22T09:26:28;101159.91;;;8.95;82.99
59104;BME280;51449;51.676;5.812;2023-02-22T09:28:50;101160.78;;;9.05;83.31
59104;BME280;51449;51.676;5.812;2023-02-22T09:31:11;101149.50;;;9.15;83.02
59104;BME280;51449;51.676;5.812;2023-02-22T09:33:33;101143.53;;;9.21;82.60
59104;BME280;51449;51.676;5.812;2023-02-22T09:35:55;101142.59;;;9.26;82.12
59104;BME280;51449;51.676;5.812;2023-02-22T09:38:21;101147.78;;;9.28;81.52
59104;BME280;51449;51.676;5.812;2023-02-22T09:40:48;101144.72;;;9.29;80.87
59104;BME280;51449;51.676;5.812;2023-02-22T09:43:29;101137.94;;;9.35;80.89
59104;BME280;51449;51.676;5.812;2023-02-22T09:46:30;101129.75;;;9.44;80.85
59104;BME280;51449;51.676;5.812;2023-02-22T09:49:19;101128.78;;;9.49;80.20
59104;BME280;51449;51.676;5.812;2023-02-22T09:52:13;101136.38;;;9.52;79.78
59104;BME280;51449;51.676;5.812;2023-02-22T09:54:40;101127.50;;;9.55;79.88
59104;BME280;51449;51.676;5.812;2023-02-22T09:57:08;101137.53;;;9.59;79.40
59104;BME280;51449;51.676;5.812;2023-02-22T09:59:41;101123.63;;;9.64;79.12
59104;BME280;51449;51.676;5.812;2023-02-22T10:02:25;101129.63;;;9.75;79.01
59104;BME280;51449;51.676;5.812;2023-02-22T10:04:58;101131.13;;;9.81;79.07
59104;BME280;51449;51.676;5.812;2023-02-22T10:07:32;101127.56;;;9.90;79.03
59104;BME280;51449;51.676;5.812;2023-02-22T10:09:59;101119.63;;;9.97;79.13
59104;BME280;51449;51.676;5.812;2023-02-22T10:24:46;101112.06;;;10.37;77.40
59104;BME280;51449;51.676;5.812;2023-02-22T10:27:29;101111.41;;;10.49;76.86
59104;BME280;51449;51.676;5.812;2023-02-22T10:30:05;101105.06;;;10.57;76.16
59104;BME280;51449;51.676;5.812;2023-02-22T10:32:48;101104.56;;;10.64;76.35
59104;BME280;51449;51.676;5.812;2023-02-22T10:35:19;101097.09;;;10.73;75.90
59104;BME280;51449;51.676;5.812;2023-02-22T10:37:50;101103.72;;;10.81;75.23
59104;BME280;51449;51.676;5.812;2023-02-22T10:40:19;101104.53;;;10.90;75.23
59104;BME280;51449;51.676;5.812;2023-02-22T10:42:52;101087.13;;;10.98;75.28
59104;BME280;51449;51.676;5.812;2023-02-22T10:45:26;101095.34;;;11.07;74.91
59104;BME280;51449;51.676;5.812;2023-02-22T10:47:55;101100.03;;;11.15;74.89
59104;BME280;51449;51.676;5.812;2023-02-22T10:50:19;101098.06;;;11.24;74.91
59104;BME280;51449;51.676;5.812;2023-02-22T10:52:42;101102.06;;;11.35;74.89
59104;BME280;51449;51.676;5.812;2023-02-22T10:55:04;101087.56;;;11.47;74.93
59104;BME280;51449;51.676;5.812;2023-02-22T10:57:36;101089.44;;;11.55;74.60
59104;BME280;51449;51.676;5.812;2023-02-22T11:02:35;101083.63;;;11.78;73.99
59104;BME280;51449;51.676;5.812;2023-02-22T11:04:59;101078.53;;;11.89;74.06
59104;BME280;51449;51.676;5.812;2023-02-22T11:07:33;101082.38;;;11.96;73.07
59104;BME280;51449;51.676;5.812;2023-02-22T11:09:58;101078.75;;;12.05;73.45
59104;BME280;51449;51.676;5.812;2023-02-22T11:12:28;101087.75;;;12.14;72.91
59104;BME280;51449;51.676;5.812;2023-02-22T11:14:52;101087.00;;;12.26;72.46
59104;BME280;51449;51.676;5.812;2023-02-22T11:17:18;101089.13;;;12.41;73.17
59104;BME280;51449;51.676;5.812;2023-02-22T11:19:48;101085.13;;;12.51;72.20
59104;BME280;51449;51.676;5.812;2023-02-22T11:22:17;101085.88;;;12.60;71.68
59104;BME280;51449;51.676;5.812;2023-02-22T11:24:47;101073.94;;;12.68;70.75
59104;BME280;51449;51.676;5.812;2023-02-22T11:27:23;101079.00;;;12.78;71.10
59104;BME280;51449;51.676;5.812;2023-02-22T11:29:58;101077.50;;;12.81;69.51
59104;BME280;51449;51.676;5.812;2023-02-22T11:32:45;101076.25;;;12.91;69.02
59104;BME280;51449;51.676;5.812;2023-02-22T11:35:31;101077.41;;;13.02;69.41
59104;BME280;51449;51.676;5.812;2023-02-22T11:38:17;101072.13;;;13.09;68.84
59104;BME280;51449;51.676;5.812;2023-02-22T11:40:42;101073.53;;;13.15;68.32
59104;BME280;51449;51.676;5.812;2023-02-22T11:43:08;101066.97;;;13.20;67.87
59104;BME280;51449;51.676;5.812;2023-02-22T11:45:38;101061.31;;;13.28;66.94
59104;BME280;51449;51.676;5.812;2023-02-22T11:48:18;101058.78;;;13.36;65.72
59104;BME280;51449;51.676;5.812;2023-02-22T11:56:44;101049.19;;;13.58;64.04
59104;BME280;51449;51.676;5.812;2023-02-22T12:07:58;101039.25;;;13.69;62.87
59104;BME280;51449;51.676;5.812;2023-02-22T12:16:20;101023.66;;;13.77;63.45
59104;BME280;51449;51.676;5.812;2023-02-22T12:22:02;101019.97;;;13.73;63.45
59104;BME280;51449;51.676;5.812;2023-02-22T12:24:45;101016.38;;;13.72;63.09
59104;BME280;51449;51.676;5.812;2023-02-22T12:27:28;101019.53;;;13.70;62.66
59104;BME280;51449;51.676;5.812;2023-02-22T12:30:00;101015.59;;;13.72;62.84
59104;BME280;51449;51.676;5.812;2023-02-22T12:32:50;101004.25;;;13.77;63.15
59104;BME280;51449;51.676;5.812;2023-02-22T12:35:21;100999.19;;;13.79;63.53
59104;BME280;51449;51.676;5.812;2023-02-22T12:37:58;100998.59;;;13.85;63.52
59104;BME280;51449;51.676;5.812;2023-02-22T12:40:37;100997.16;;;13.91;63.78
59104;BME280;51449;51.676;5.812;2023-02-22T12:46:19;101001.31;;;13.98;63.12
59104;BME280;51449;51.676;5.812;2023-02-22T12:48:48;100995.78;;;13.98;62.70
59104;BME280;51449;51.676;5.812;2023-02-22T12:51:40;101000.84;;;13.96;62.54
59104;BME280;51449;51.676;5.812;2023-02-22T13:00:26;101013.69;;;13.88;61.87
59104;BME280;51449;51.676;5.812;2023-02-22T13:05:39;101021.56;;;13.86;61.80
59104;BME280;51449;51.676;5.812;2023-02-22T13:19:02;101014.13;;;13.62;61.89
59104;BME280;51449;51.676;5.812;2023-02-22T13:21:45;101010.09;;;13.59;62.42
59104;BME280;51449;51.676;5.812;2023-02-22T13:24:34;101004.44;;;13.56;62.48
59104;BME280;51449;51.676;5.812;2023-02-22T13:27:19;100998.47;;;13.54;62.85
59104;BME280;51449;51.676;5.812;2023-02-22T13:29:48;101007.91;;;13.53;63.27
59104;BME280;51449;51.676;5.812;2023-02-22T13:32:49;101001.47;;;13.48;63.37
59104;BME280;51449;51.676;5.812;2023-02-22T13:38:48;101003.56;;;13.39;64.23
59104;BME280;51449;51.676;5.812;2023-02-22T13:44:50;101006.88;;;13.20;64.98
59104;BME280;51449;51.676;5.812;2023-02-22T13:47:55;101005.50;;;13.14;65.43
59104;BME280;51449;51.676;5.812;2023-02-22T13:53:14;101000.78;;;13.02;65.83
59104;BME280;51449;51.676;5.812;2023-02-22T13:55:42;101012.19;;;13.01;65.95
59104;BME280;51449;51.676;5.812;2023-02-22T13:58:12;101002.28;;;13.00;65.87
59104;BME280;51449;51.676;5.812;2023-02-22T14:00:45;101008.63;;;13.00;66.52
59104;BME280;51449;51.676;5.812;2023-02-22T14:08:07;101005.16;;;12.91;66.67
59104;BME280;51449;51.676;5.812;2023-02-22T14:13:19;100999.16;;;12.89;67.01
59104;BME280;51449;51.676;5.812;2023-02-22T14:18:24;101003.19;;;12.79;67.61
59104;BME280;51449;51.676;5.812;2023-02-22T14:23:43;101015.72;;;12.64;68.30
59104;BME280;51449;51.676;5.812;2023-02-22T14:26:26;101021.81;;;12.58;68.45
59104;BME280;51449;51.676;5.812;2023-02-22T14:28:57;101014.91;;;12.52;69.21
59104;BME280;51449;51.676;5.812;2023-02-22T14:31:32;101017.91;;;12.47;69.90
59104;BME280;51449;51.676;5.812;2023-02-22T14:34:15;101024.53;;;12.33;70.73
59104;BME280;51449;51.676;5.812;2023-02-22T14:36:44;101010.66;;;12.21;71.07
59104;BME280;51449;51.676;5.812;2023-02-22T14:39:16;101018.22;;;12.12;71.60
59104;BME280;51449;51.676;5.812;2023-02-22T14:42:07;101012.13;;;12.06;71.88
59104;BME280;51449;51.676;5.812;2023-02-22T14:47:03;101023.09;;;11.94;72.48